Time;durP1;ratioP1;P1;durP2;ratioP2;P2;SDS_P1;SDS_P2;PMS_P1;PMS_P2;Temp;Humidity;BMP_temperature;BMP_pressure;BME280_temperature;BME280_humidity;BME280_pressure;Samples;Min_cycle;Max_cycle;Signal;HPM_P1;HPM_P2
2021/12/19 00:02:08;;;;;;;;;;;3.20;99.90;;;;;;5037729;28;19928;-81
2021/12/19 00:04:56;;;;;;;;;;;3.20;99.90;;;;;;5049938;28;19921;-82
2021/12/19 00:10:08;;;;;;;;;;;3.20;99.90;;;;;;5038100;28;21997;-81
2021/12/19 00:12:35;;;;;;;;;;;3.20;99.90;;;;;;5045598;28;20024;-82
2021/12/19 00:15:05;;;;;;;;;;;3.20;99.90;;;;;;5050298;28;20298;-82
2021/12/19 00:17:31;;;;;;;;;;;3.20;99.90;;;;;;5050488;28;19921;-82
2021/12/19 00:19:58;;;;;;;;;;;3.20;99.90;;;;;;5050049;28;19974;-82
2021/12/19 00:22:45;;;;;;;;;;;3.30;99.90;;;;;;5051636;28;19927;-82
2021/12/19 00:25:19;;;;;;;;;;;3.30;99.90;;;;;;5050137;28;19920;-82
2021/12/19 00:27:45;;;;;;;;;;;3.30;99.90;;;;;;5051425;28;19934;-82
2021/12/19 00:30:12;;;;;;;;;;;3.30;99.90;;;;;;5035802;28;19924;-81
2021/12/19 00:32:40;;;;;;;;;;;3.30;99.90;;;;;;5037873;28;19920;-82
2021/12/19 00:35:07;;;;;;;;;;;3.30;99.90;;;;;;5047769;28;19968;-82
2021/12/19 00:37:33;;;;;;;;;;;3.30;99.90;;;;;;5035467;28;19935;-81
2021/12/19 00:40:00;;;;;;;;;;;3.30;99.90;;;;;;5039774;28;19983;-82
2021/12/19 00:42:28;;;;;;;;;;;3.30;99.90;;;;;;5052187;28;19920;-82
2021/12/19 00:44:57;;;;;;;;;;;3.30;99.90;;;;;;5044176;28;19943;-82
2021/12/19 00:47:24;;;;;;;;;;;3.30;99.90;;;;;;5043775;28;19990;-82
2021/12/19 00:49:51;;;;;;;;;;;3.30;99.90;;;;;;5036011;28;19937;-81
2021/12/19 00:52:37;;;;;;;;;;;3.30;99.90;;;;;;5039100;28;19929;-82
2021/12/19 00:55:07;;;;;;;;;;;3.30;99.90;;;;;;5037936;28;19941;-81
2021/12/19 00:57:33;;;;;;;;;;;3.30;99.90;;;;;;5037664;28;19924;-82
2021/12/19 01:00:00;;;;;;;;;;;3.30;99.90;;;;;;5048992;28;19928;-81
2021/12/19 01:02:27;;;;;;;;;;;3.30;99.90;;;;;;5040396;28;19921;-83
2021/12/19 01:04:54;;;;;;;;;;;3.30;99.90;;;;;;5055196;28;19942;-83
2021/12/19 01:07:21;;;;;;;;;;;3.30;99.90;;;;;;5054743;28;19983;-80
2021/12/19 01:09:47;;;;;;;;;;;3.30;99.90;;;;;;5042149;28;19927;-81
2021/12/19 01:12:14;;;;;;;;;;;3.40;99.90;;;;;;5049595;28;20015;-81
2021/12/19 01:14:41;;;;;;;;;;;3.30;99.90;;;;;;5044941;28;20387;-82
2021/12/19 01:17:08;;;;;;;;;;;3.30;99.90;;;;;;5048888;28;19921;-82
2021/12/19 01:19:35;;;;;;;;;;;3.20;99.90;;;;;;5056043;28;20007;-82
2021/12/19 01:22:03;;;;;;;;;;;3.30;99.90;;;;;;5046604;28;19920;-82
2021/12/19 01:24:44;;;;;;;;;;;3.30;99.90;;;;;;5040092;28;19925;-82
2021/12/19 01:27:11;;;;;;;;;;;3.30;99.90;;;;;;5040764;28;19927;-82
2021/12/19 01:29:37;;;;;;;;;;;3.30;99.90;;;;;;5052226;28;19927;-81
2021/12/19 01:32:04;;;;;;;;;;;3.20;99.90;;;;;;5047005;28;19921;-81
2021/12/19 01:34:31;;;;;;;;;;;3.20;99.90;;;;;;5038166;28;19921;-82
2021/12/19 01:37:00;;;;;;;;;;;3.20;99.90;;;;;;5042425;28;22014;-81
2021/12/19 01:39:27;;;;;;;;;;;3.20;99.90;;;;;;5058331;28;19929;-81
2021/12/19 01:41:55;;;;;;;;;;;3.20;99.90;;;;;;5039233;28;19928;-82
2021/12/19 01:44:23;;;;;;;;;;;3.20;99.90;;;;;;5037136;28;20016;-81
2021/12/19 01:46:50;;;;;;;;;;;3.20;99.90;;;;;;5037589;28;19927;-82
2021/12/19 01:49:18;;;;;;;;;;;3.20;99.90;;;;;;5044071;28;19974;-82
2021/12/19 01:51:44;;;;;;;;;;;3.20;99.90;;;;;;5046049;28;19943;-82
2021/12/19 01:54:11;;;;;;;;;;;3.20;99.90;;;;;;5042133;28;19929;-82
2021/12/19 01:56:39;;;;;;;;;;;3.20;99.90;;;;;;5035768;28;19931;-82
2021/12/19 01:59:10;;;;;;;;;;;3.20;99.90;;;;;;5046851;28;19920;-82
2021/12/19 02:01:51;;;;;;;;;;;3.20;99.90;;;;;;5049275;28;19925;-82
2021/12/19 02:04:19;;;;;;;;;;;3.20;99.90;;;;;;5036542;28;20236;-82
2021/12/19 02:06:49;;;;;;;;;;;3.20;99.90;;;;;;5052926;28;19920;-81
2021/12/19 02:09:16;;;;;;;;;;;3.10;99.90;;;;;;5051185;28;19927;-82
2021/12/19 02:11:43;;;;;;;;;;;3.20;99.90;;;;;;5052938;28;19924;-81
2021/12/19 02:14:10;;;;;;;;;;;3.10;99.90;;;;;;5047344;28;19921;-82
2021/12/19 02:16:38;;;;;;;;;;;3.10;99.90;;;;;;5048282;28;19954;-80
2021/12/19 02:19:06;;;;;;;;;;;3.20;99.90;;;;;;5048245;28;19951;-82
2021/12/19 02:21:32;;;;;;;;;;;3.10;99.90;;;;;;5054172;28;20007;-82
2021/12/19 02:24:00;;;;;;;;;;;3.10;99.90;;;;;;5053694;28;20473;-82
2021/12/19 02:26:27;;;;;;;;;;;3.10;99.90;;;;;;5047917;28;19928;-82
2021/12/19 02:28:54;;;;;;;;;;;3.20;99.90;;;;;;5053984;28;20023;-82
2021/12/19 02:31:21;;;;;;;;;;;3.10;99.90;;;;;;5050592;28;19951;-81
2021/12/19 02:34:09;;;;;;;;;;;3.20;99.90;;;;;;5050260;28;20582;-81
2021/12/19 02:39:34;;;;;;;;;;;3.20;99.90;;;;;;5040807;28;19928;-81
2021/12/19 02:50:18;;;;;;;;;;;3.20;99.90;;;;;;5053355;28;19924;-82
2021/12/19 02:52:45;;;;;;;;;;;3.20;99.90;;;;;;5053500;28;19925;-83
2021/12/19 02:55:14;;;;;;;;;;;3.20;99.90;;;;;;5035738;28;20016;-83
2021/12/19 02:57:40;;;;;;;;;;;3.10;99.90;;;;;;5041889;28;19921;-82
2021/12/19 03:00:12;;;;;;;;;;;3.10;99.90;;;;;;5039317;28;19925;-82
2021/12/19 03:02:44;;;;;;;;;;;3.20;99.90;;;;;;5041585;28;19936;-82
2021/12/19 03:05:14;;;;;;;;;;;3.20;99.90;;;;;;5054032;28;19926;-82
2021/12/19 03:07:43;;;;;;;;;;;3.20;99.90;;;;;;5043269;28;20018;-82
2021/12/19 03:10:52;;;;;;;;;;;3.20;99.90;;;;;;5039228;28;19925;-82
2021/12/19 03:17:56;;;;;;;;;;;3.20;99.90;;;;;;5046515;28;20007;-82
2021/12/19 03:18:44;;;;;;;;;;;3.20;99.90;;;;;;5038182;28;19929;-82
2021/12/19 03:21:15;;;;;;;;;;;3.20;99.90;;;;;;5039382;28;19927;-82
2021/12/19 03:23:42;;;;;;;;;;;3.20;99.90;;;;;;5052439;28;19927;-82
2021/12/19 03:26:09;;;;;;;;;;;3.20;99.90;;;;;;5052029;28;19921;-82
2021/12/19 03:28:36;;;;;;;;;;;3.20;99.90;;;;;;5039163;28;19920;-82
2021/12/19 03:31:03;;;;;;;;;;;3.20;99.90;;;;;;5051744;28;19932;-82
2021/12/19 03:33:30;;;;;;;;;;;3.30;99.90;;;;;;5044619;28;19925;-81
2021/12/19 03:35:57;;;;;;;;;;;3.30;99.90;;;;;;5044470;28;19925;-82
2021/12/19 03:38:26;;;;;;;;;;;3.30;99.90;;;;;;5052533;28;19928;-80
2021/12/19 03:41:07;;;;;;;;;;;3.30;99.90;;;;;;5053906;28;20286;-82
2021/12/19 03:43:34;;;;;;;;;;;3.30;99.90;;;;;;5051213;28;19947;-82
2021/12/19 03:46:01;;;;;;;;;;;3.30;99.90;;;;;;5052275;28;19927;-82
2021/12/19 03:48:28;;;;;;;;;;;3.30;99.90;;;;;;5053470;28;19932;-82
2021/12/19 03:50:54;;;;;;;;;;;3.40;99.90;;;;;;5042899;28;20307;-82
2021/12/19 03:53:22;;;;;;;;;;;3.30;99.90;;;;;;5052738;28;19967;-81
2021/12/19 03:55:51;;;;;;;;;;;3.40;99.90;;;;;;5051570;28;19925;-82
2021/12/19 03:58:19;;;;;;;;;;;3.40;99.90;;;;;;5044166;28;19928;-82
2021/12/19 04:00:46;;;;;;;;;;;3.40;99.90;;;;;;5038126;28;20019;-82
2021/12/19 04:03:19;;;;;;;;;;;3.40;99.90;;;;;;5043665;28;19924;-82
2021/12/19 04:05:47;;;;;;;;;;;3.40;99.90;;;;;;5041478;28;19999;-82
2021/12/19 04:08:14;;;;;;;;;;;3.50;99.90;;;;;;5034942;28;19971;-82
2021/12/19 04:10:41;;;;;;;;;;;3.50;99.90;;;;;;5044888;28;19950;-82
2021/12/19 04:13:08;;;;;;;;;;;3.50;99.90;;;;;;5049925;28;19921;-82
2021/12/19 04:15:35;;;;;;;;;;;3.50;99.90;;;;;;5039652;28;20071;-82
2021/12/19 04:18:04;;;;;;;;;;;3.50;99.90;;;;;;5035597;28;19929;-81
2021/12/19 04:20:31;;;;;;;;;;;3.50;99.90;;;;;;5046312;28;19920;-82
2021/12/19 04:22:58;;;;;;;;;;;3.50;99.90;;;;;;5046710;28;19921;-83
2021/12/19 04:25:25;;;;;;;;;;;3.50;99.90;;;;;;5058352;28;20386;-82
2021/12/19 04:27:51;;;;;;;;;;;3.50;99.90;;;;;;5048130;28;19926;-82
2021/12/19 04:30:21;;;;;;;;;;;3.50;99.90;;;;;;5060527;28;20015;-82
2021/12/19 04:32:57;;;;;;;;;;;3.60;99.90;;;;;;5033089;28;19924;-82
2021/12/19 04:35:31;;;;;;;;;;;3.60;99.90;;;;;;5040423;28;19921;-82
2021/12/19 05:15:32;;;;;;;;;;;3.60;99.90;;;;;;5042558;28;19921;-82
2021/12/19 05:18:04;;;;;;;;;;;3.70;99.90;;;;;;5033890;28;19921;-82
2021/12/19 05:20:32;;;;;;;;;;;3.60;99.90;;;;;;5045930;28;19921;-82
2021/12/19 05:23:27;;;;;;;;;;;3.60;99.90;;;;;;5042986;28;19921;-81
2021/12/19 05:25:51;;;;;;;;;;;3.60;99.90;;;;;;5038450;28;19927;-81
2021/12/19 05:28:19;;;;;;;;;;;3.60;99.90;;;;;;5049545;28;20371;-81
2021/12/19 05:30:45;;;;;;;;;;;3.60;99.90;;;;;;5045641;28;19935;-82
2021/12/19 05:33:12;;;;;;;;;;;3.60;99.90;;;;;;5041713;28;19928;-82
2021/12/19 05:46:25;;;;;;;;;;;3.70;99.90;;;;;;5040450;28;19920;-82
2021/12/19 05:48:53;;;;;;;;;;;3.60;99.90;;;;;;5050379;28;19924;-82
2021/12/19 05:51:19;;;;;;;;;;;3.70;99.90;;;;;;5048821;28;20011;-83
2021/12/19 05:53:46;;;;;;;;;;;3.70;99.90;;;;;;5051564;28;19999;-83
2021/12/19 05:56:15;;;;;;;;;;;3.70;99.90;;;;;;5051190;28;19935;-82
2021/12/19 05:59:03;;;;;;;;;;;3.70;99.90;;;;;;5053853;28;20007;-83
2021/12/19 06:01:30;;;;;;;;;;;3.70;99.90;;;;;;5053034;28;20011;-83
2021/12/19 06:04:02;;;;;;;;;;;3.70;99.90;;;;;;5046311;28;20375;-82
2021/12/19 06:06:30;;;;;;;;;;;3.70;99.90;;;;;;5068064;28;19980;-82
2021/12/19 06:08:56;;;;;;;;;;;3.70;99.90;;;;;;5068288;28;19942;-82
2021/12/19 06:11:23;;;;;;;;;;;3.80;99.90;;;;;;5044316;28;19921;-82
2021/12/19 06:13:50;;;;;;;;;;;3.70;99.90;;;;;;5054174;28;19920;-82
2021/12/19 06:16:16;;;;;;;;;;;3.70;99.90;;;;;;5045154;28;19967;-82
2021/12/19 06:18:47;;;;;;;;;;;3.80;99.90;;;;;;5040910;28;19960;-82
2021/12/19 06:21:13;;;;;;;;;;;3.80;99.90;;;;;;5038115;28;20506;-82
2021/12/19 06:23:40;;;;;;;;;;;3.80;99.90;;;;;;5053614;28;19921;-82
2021/12/19 06:26:10;;;;;;;;;;;3.80;99.90;;;;;;5070802;28;19928;-83
2021/12/19 06:28:37;;;;;;;;;;;3.80;99.90;;;;;;5052129;28;20003;-83
2021/12/19 06:31:04;;;;;;;;;;;3.80;99.90;;;;;;5053954;28;20004;-83
2021/12/19 06:33:33;;;;;;;;;;;3.80;99.90;;;;;;5047229;28;19968;-83
2021/12/19 06:36:03;;;;;;;;;;;3.80;99.90;;;;;;5037335;28;20007;-83
2021/12/19 06:38:31;;;;;;;;;;;3.90;99.90;;;;;;5045506;28;19928;-81
2021/12/19 06:40:57;;;;;;;;;;;3.80;99.90;;;;;;5044159;28;19921;-82
2021/12/19 06:43:30;;;;;;;;;;;3.80;99.90;;;;;;5044017;28;20383;-81
2021/12/19 06:45:57;;;;;;;;;;;3.80;99.90;;;;;;5038525;28;21049;-82
2021/12/19 06:48:24;;;;;;;;;;;3.80;99.90;;;;;;5036488;28;20092;-81
2021/12/19 06:50:51;;;;;;;;;;;3.90;99.90;;;;;;5052724;28;19935;-82
2021/12/19 06:53:18;;;;;;;;;;;3.90;99.90;;;;;;5037955;28;19986;-82
2021/12/19 06:55:45;;;;;;;;;;;3.90;99.90;;;;;;5047856;28;19921;-81
2021/12/19 06:58:12;;;;;;;;;;;3.90;99.90;;;;;;5049677;28;19921;-82
2021/12/19 07:00:39;;;;;;;;;;;3.90;99.90;;;;;;5049517;28;19982;-81
2021/12/19 07:03:10;;;;;;;;;;;4.00;99.90;;;;;;5044302;28;20383;-82
2021/12/19 07:05:38;;;;;;;;;;;3.90;99.90;;;;;;5052446;28;20031;-81
2021/12/19 07:08:05;;;;;;;;;;;3.90;99.90;;;;;;5044688;28;19928;-82
2021/12/19 07:10:32;;;;;;;;;;;3.90;99.90;;;;;;5052599;28;19920;-82
2021/12/19 07:13:01;;;;;;;;;;;3.90;99.90;;;;;;5048604;28;19935;-81
2021/12/19 07:15:30;;;;;;;;;;;3.90;99.90;;;;;;5036626;28;20012;-81
2021/12/19 07:18:03;;;;;;;;;;;4.00;99.90;;;;;;5038650;28;19987;-81
2021/12/19 07:20:33;;;;;;;;;;;4.00;99.90;;;;;;5051871;28;19925;-82
2021/12/19 07:22:59;;;;;;;;;;;4.00;99.90;;;;;;5044848;28;19921;-82
2021/12/19 07:25:26;;;;;;;;;;;4.00;99.90;;;;;;5050962;28;19924;-82
2021/12/19 07:27:52;;;;;;;;;;;4.00;99.90;;;;;;5051795;28;19921;-82
2021/12/19 07:30:19;;;;;;;;;;;4.00;99.90;;;;;;5049937;28;19921;-82
2021/12/19 07:32:46;;;;;;;;;;;4.00;99.90;;;;;;5051688;28;20552;-81
2021/12/19 07:35:20;;;;;;;;;;;4.00;99.90;;;;;;5050888;28;19966;-82
2021/12/19 07:37:49;;;;;;;;;;;4.00;99.90;;;;;;5050482;28;19927;-81
2021/12/19 07:40:18;;;;;;;;;;;4.00;99.90;;;;;;5051208;28;20329;-81
2021/12/19 07:42:45;;;;;;;;;;;4.10;99.90;;;;;;5044543;28;19970;-81
2021/12/19 07:45:13;;;;;;;;;;;4.10;99.90;;;;;;5050895;28;19920;-81
2021/12/19 07:47:40;;;;;;;;;;;4.10;99.90;;;;;;5052410;28;20323;-81
2021/12/19 07:50:07;;;;;;;;;;;4.10;99.90;;;;;;5046549;28;19925;-81
2021/12/19 07:52:34;;;;;;;;;;;4.20;99.90;;;;;;5050248;28;19921;-82
2021/12/19 07:55:06;;;;;;;;;;;4.20;99.90;;;;;;5053393;28;19938;-81
2021/12/19 07:57:33;;;;;;;;;;;4.20;99.90;;;;;;5065358;28;19927;-81
2021/12/19 07:59:59;;;;;;;;;;;4.30;99.90;;;;;;5053829;28;19943;-82
2021/12/19 08:02:27;;;;;;;;;;;4.30;99.90;;;;;;5049090;28;19925;-81
2021/12/19 08:04:54;;;;;;;;;;;4.40;99.90;;;;;;5046782;28;19968;-82
2021/12/19 08:07:23;;;;;;;;;;;4.40;99.90;;;;;;5054233;28;19975;-81
2021/12/19 08:10:12;;;;;;;;;;;4.40;99.90;;;;;;5041130;28;20461;-81
2021/12/19 08:12:39;;;;;;;;;;;4.50;99.90;;;;;;5041797;28;19924;-81
2021/12/19 08:15:07;;;;;;;;;;;4.50;99.90;;;;;;5070266;28;20016;-81
2021/12/19 08:17:33;;;;;;;;;;;4.60;99.90;;;;;;5041218;28;20364;-82
2021/12/19 08:20:04;;;;;;;;;;;4.60;99.90;;;;;;5062422;28;19921;-81
2021/12/19 08:22:33;;;;;;;;;;;4.60;99.90;;;;;;5034181;28;19921;-82
2021/12/19 08:24:59;;;;;;;;;;;4.70;99.90;;;;;;5042232;28;20061;-81
2021/12/19 08:27:26;;;;;;;;;;;4.80;99.90;;;;;;5047372;28;19925;-82
2021/12/19 08:29:54;;;;;;;;;;;4.80;99.90;;;;;;5058581;28;19927;-82
2021/12/19 08:32:22;;;;;;;;;;;4.90;99.90;;;;;;5049998;28;19989;-81
2021/12/19 08:34:49;;;;;;;;;;;4.90;99.90;;;;;;5059308;28;20389;-82
2021/12/19 08:37:16;;;;;;;;;;;5.00;99.90;;;;;;5058513;28;20338;-81
2021/12/19 08:39:43;;;;;;;;;;;5.00;99.90;;;;;;5043384;28;20295;-81
2021/12/19 08:42:09;;;;;;;;;;;5.00;99.90;;;;;;5042487;28;19921;-81
2021/12/19 08:44:36;;;;;;;;;;;5.10;99.90;;;;;;5043491;28;20011;-81
2021/12/19 08:47:04;;;;;;;;;;;5.20;99.90;;;;;;5052611;28;19928;-82
2021/12/19 08:49:30;;;;;;;;;;;5.20;99.90;;;;;;5051541;28;19921;-83
2021/12/19 08:51:57;;;;;;;;;;;5.30;99.90;;;;;;5047441;28;19921;-82
2021/12/19 08:54:24;;;;;;;;;;;5.30;99.90;;;;;;5036223;28;19931;-82
2021/12/19 08:56:50;;;;;;;;;;;5.40;99.90;;;;;;5042564;28;19935;-82
2021/12/19 08:59:17;;;;;;;;;;;5.50;99.90;;;;;;5037765;28;19928;-82
2021/12/19 09:01:44;;;;;;;;;;;5.60;99.90;;;;;;5043172;28;20320;-82
2021/12/19 09:04:14;;;;;;;;;;;5.60;99.90;;;;;;5042491;28;19936;-82
2021/12/19 09:06:41;;;;;;;;;;;5.70;99.90;;;;;;5048341;28;19920;-81
2021/12/19 09:09:08;;;;;;;;;;;5.70;99.90;;;;;;5043128;28;19928;-82
2021/12/19 09:11:35;;;;;;;;;;;5.70;99.90;;;;;;5047025;28;19920;-82
2021/12/19 09:14:04;;;;;;;;;;;5.70;99.90;;;;;;5046554;28;20016;-82
2021/12/19 09:16:31;;;;;;;;;;;5.80;99.90;;;;;;5051767;28;19929;-81
2021/12/19 09:19:10;;;;;;;;;;;5.80;99.90;;;;;;5057103;28;19921;-81
2021/12/19 09:21:37;;;;;;;;;;;5.90;99.90;;;;;;5060437;28;19927;-81
2021/12/19 09:24:04;;;;;;;;;;;5.90;99.90;;;;;;5066955;28;19925;-81
2021/12/19 09:26:30;;;;;;;;;;;6.00;99.90;;;;;;5052409;28;19943;-82
2021/12/19 09:28:57;;;;;;;;;;;6.10;99.90;;;;;;5046318;28;19921;-81
2021/12/19 09:31:24;;;;;;;;;;;6.10;99.90;;;;;;5046134;28;19920;-81
2021/12/19 09:33:51;;;;;;;;;;;6.20;99.90;;;;;;5051611;28;19927;-83
2021/12/19 09:36:18;;;;;;;;;;;6.20;99.90;;;;;;5050252;28;19921;-82
2021/12/19 09:38:48;;;;;;;;;;;6.20;99.90;;;;;;5067707;28;19928;-82
2021/12/19 09:41:27;;;;;;;;;;;6.30;99.90;;;;;;5057376;28;19971;-82
2021/12/19 09:43:56;;;;;;;;;;;6.20;99.90;;;;;;5049169;28;20041;-83
2021/12/19 09:46:28;;;;;;;;;;;6.20;99.90;;;;;;5038976;28;19982;-82
2021/12/19 09:48:55;;;;;;;;;;;6.20;99.90;;;;;;5049967;28;20019;-82
2021/12/19 09:51:23;;;;;;;;;;;6.30;99.90;;;;;;5045870;28;19927;-82
2021/12/19 09:53:50;;;;;;;;;;;6.40;99.90;;;;;;5051058;28;20399;-82
2021/12/19 09:56:17;;;;;;;;;;;6.50;99.90;;;;;;5050358;28;19927;-82
2021/12/19 09:58:44;;;;;;;;;;;6.60;99.90;;;;;;5054401;28;19921;-82
2021/12/19 10:01:12;;;;;;;;;;;6.60;99.90;;;;;;5057223;28;19921;-82
2021/12/19 10:03:39;;;;;;;;;;;6.70;99.90;;;;;;5046003;28;19960;-82
2021/12/19 10:06:11;;;;;;;;;;;6.80;99.90;;;;;;5052702;28;19943;-83
2021/12/19 10:08:39;;;;;;;;;;;6.90;99.90;;;;;;5046997;28;20448;-82
2021/12/19 10:11:29;;;;;;;;;;;6.90;99.90;;;;;;5039688;28;19928;-82
2021/12/19 10:13:59;;;;;;;;;;;6.90;99.90;;;;;;5050094;28;19999;-82
2021/12/19 10:16:30;;;;;;;;;;;7.00;99.90;;;;;;5064063;28;19971;-82
2021/12/19 10:19:00;;;;;;;;;;;7.00;99.90;;;;;;5046123;28;19940;-83
2021/12/19 10:21:34;;;;;;;;;;;7.20;99.90;;;;;;5048654;28;20004;-82
2021/12/19 10:24:03;;;;;;;;;;;7.20;99.90;;;;;;5060501;28;19927;-82
2021/12/19 10:26:39;;;;;;;;;;;7.40;99.90;;;;;;5048575;28;20355;-82
2021/12/19 10:29:08;;;;;;;;;;;7.40;99.90;;;;;;5052582;28;20428;-82
2021/12/19 10:31:35;;;;;;;;;;;7.50;99.90;;;;;;5055183;28;19921;-82
2021/12/19 10:34:21;;;;;;;;;;;7.50;99.90;;;;;;5041799;28;19924;-82
2021/12/19 10:36:50;;;;;;;;;;;7.60;99.90;;;;;;5043425;28;19970;-82
2021/12/19 10:39:23;;;;;;;;;;;7.60;99.90;;;;;;5050803;28;19927;-82
2021/12/19 10:41:58;;;;;;;;;;;7.60;99.90;;;;;;5044620;28;20023;-81
2021/12/19 10:47:25;;;;;;;;;;;7.50;99.90;;;;;;5042336;28;19928;-82
2021/12/19 10:49:53;;;;;;;;;;;7.40;99.90;;;;;;5058527;28;19948;-83
2021/12/19 10:52:30;;;;;;;;;;;7.40;99.90;;;;;;5049387;28;20278;-77
2021/12/19 10:55:01;;;;;;;;;;;7.40;99.90;;;;;;5045474;28;20023;-77
2021/12/19 10:57:35;;;;;;;;;;;7.40;99.90;;;;;;5042762;28;19959;-77
2021/12/19 11:00:08;;;;;;;;;;;7.40;99.90;;;;;;5044173;28;19924;-77
2021/12/19 11:02:36;;;;;;;;;;;7.40;99.90;;;;;;5044720;28;19928;-76
2021/12/19 11:05:03;;;;;;;;;;;7.40;99.90;;;;;;5046249;28;19928;-76
2021/12/19 11:07:29;;;;;;;;;;;7.40;99.90;;;;;;5050768;28;20019;-77
2021/12/19 11:09:56;;;;;;;;;;;7.40;99.90;;;;;;5030516;28;20339;-77
2021/12/19 11:12:23;;;;;;;;;;;7.40;99.90;;;;;;5042455;28;20556;-76
2021/12/19 11:14:50;;;;;;;;;;;7.40;99.90;;;;;;5042739;28;19925;-76
2021/12/19 11:17:23;;;;;;;;;;;7.40;99.90;;;;;;5040505;28;20398;-77
2021/12/19 11:19:52;;;;;;;;;;;7.50;99.90;;;;;;5042679;28;20394;-77
2021/12/19 11:22:23;;;;;;;;;;;7.60;99.90;;;;;;5042777;28;19921;-76
2021/12/19 11:24:56;;;;;;;;;;;7.70;99.90;;;;;;5039858;28;20007;-76
2021/12/19 11:27:23;;;;;;;;;;;7.80;99.90;;;;;;5032248;28;20282;-76
2021/12/19 11:29:50;;;;;;;;;;;7.80;99.90;;;;;;5040720;28;19929;-76
2021/12/19 11:32:19;;;;;;;;;;;7.70;99.90;;;;;;5040389;28;20310;-76
2021/12/19 11:34:46;;;;;;;;;;;7.70;99.90;;;;;;5063795;28;19947;-77
2021/12/19 11:37:16;;;;;;;;;;;7.70;99.90;;;;;;5042893;28;20291;-76
2021/12/19 11:39:50;;;;;;;;;;;7.60;99.90;;;;;;5047753;28;20252;-75
2021/12/19 11:42:18;;;;;;;;;;;7.50;99.90;;;;;;5031498;28;19925;-75
2021/12/19 11:45:07;;;;;;;;;;;7.60;99.90;;;;;;5042396;28;19924;-75
2021/12/19 11:47:35;;;;;;;;;;;7.70;99.90;;;;;;5041399;28;20582;-76
2021/12/19 11:50:16;;;;;;;;;;;7.70;99.90;;;;;;5046138;28;20387;-76
2021/12/19 11:52:47;;;;;;;;;;;7.80;99.90;;;;;;5057393;28;19932;-82
2021/12/19 11:55:14;;;;;;;;;;;7.80;99.90;;;;;;5046779;28;19921;-81
2021/12/19 11:57:41;;;;;;;;;;;7.80;99.90;;;;;;5047112;28;20357;-82
2021/12/19 12:00:28;;;;;;;;;;;7.90;99.90;;;;;;5045998;28;20386;-81
2021/12/19 12:03:13;;;;;;;;;;;7.90;99.90;;;;;;5048852;28;20337;-81
2021/12/19 12:05:41;;;;;;;;;;;7.90;99.90;;;;;;5045795;28;19928;-81
2021/12/19 12:08:08;;;;;;;;;;;7.80;99.90;;;;;;5046379;28;20394;-81
2021/12/19 12:10:47;;;;;;;;;;;7.80;99.90;;;;;;5043213;28;20129;-81
2021/12/19 12:13:20;;;;;;;;;;;7.80;99.90;;;;;;5054674;28;19929;-81
2021/12/19 12:16:06;;;;;;;;;;;7.70;99.90;;;;;;5040438;28;20008;-81
2021/12/19 12:18:37;;;;;;;;;;;7.90;99.90;;;;;;5043143;28;19920;-81
2021/12/19 12:21:30;;;;;;;;;;;7.80;99.90;;;;;;5038345;28;19920;-81
2021/12/19 12:24:00;;;;;;;;;;;7.70;99.90;;;;;;5056856;28;20512;-81
2021/12/19 12:26:34;;;;;;;;;;;7.70;99.90;;;;;;5042788;28;20372;-82
2021/12/19 12:29:01;;;;;;;;;;;7.70;99.90;;;;;;5044791;28;19920;-82
2021/12/19 12:31:28;;;;;;;;;;;7.70;99.90;;;;;;5045500;28;19924;-81
2021/12/19 12:33:55;;;;;;;;;;;7.70;99.90;;;;;;5035522;28;19947;-82
2021/12/19 12:36:22;;;;;;;;;;;7.80;99.90;;;;;;5044976;28;19920;-81
2021/12/19 12:38:51;;;;;;;;;;;7.90;99.90;;;;;;5058816;28;20453;-80
2021/12/19 12:41:29;;;;;;;;;;;7.90;99.90;;;;;;5037814;28;19928;-81
2021/12/19 12:44:02;;;;;;;;;;;7.90;99.90;;;;;;5035590;28;19924;-82
2021/12/19 12:46:29;;;;;;;;;;;7.90;99.90;;;;;;5040244;28;19921;-82
2021/12/19 12:49:24;;;;;;;;;;;7.80;99.90;;;;;;5053614;28;19920;-81
2021/12/19 12:52:01;;;;;;;;;;;7.70;99.90;;;;;;5041854;28;19936;-81
2021/12/19 12:54:35;;;;;;;;;;;7.70;99.90;;;;;;5043187;28;19931;-81
2021/12/19 12:57:08;;;;;;;;;;;7.70;99.90;;;;;;5040915;28;19927;-81
2021/12/19 12:59:38;;;;;;;;;;;7.70;99.90;;;;;;5041407;28;19921;-81
2021/12/19 13:04:41;;;;;;;;;;;7.60;99.90;;;;;;5045639;28;20024;-79
2021/12/19 13:07:11;;;;;;;;;;;7.50;99.90;;;;;;5037433;28;19920;-80
2021/12/19 13:09:39;;;;;;;;;;;7.40;99.90;;;;;;5039103;28;19967;-79
2021/12/19 13:12:20;;;;;;;;;;;7.40;99.90;;;;;;5039575;28;19925;-80
2021/12/19 13:14:54;;;;;;;;;;;7.30;99.90;;;;;;5043792;28;19920;-81
2021/12/19 13:17:23;;;;;;;;;;;7.30;99.90;;;;;;5041753;28;20928;-81
2021/12/19 13:19:50;;;;;;;;;;;7.40;99.90;;;;;;5036608;28;19991;-80
2021/12/19 13:22:24;;;;;;;;;;;7.30;99.90;;;;;;5043744;28;20390;-81
2021/12/19 13:24:53;;;;;;;;;;;7.30;99.90;;;;;;5045275;28;19927;-80
2021/12/19 13:27:28;;;;;;;;;;;7.20;99.90;;;;;;5042844;28;19928;-80
2021/12/19 13:29:56;;;;;;;;;;;7.10;99.90;;;;;;5043125;28;19942;-80
2021/12/19 13:32:23;;;;;;;;;;;7.00;99.90;;;;;;5034680;28;20294;-80
2021/12/19 13:34:50;;;;;;;;;;;7.10;99.90;;;;;;5042912;28;19921;-79
2021/12/19 13:37:18;;;;;;;;;;;7.00;99.90;;;;;;5042257;28;19935;-80
2021/12/19 13:39:56;;;;;;;;;;;7.00;99.90;;;;;;5037881;28;20503;-80
2021/12/19 13:42:35;;;;;;;;;;;7.00;99.90;;;;;;5052743;28;19921;-80
2021/12/19 13:45:19;;;;;;;;;;;7.00;99.90;;;;;;5038530;28;19967;-79
2021/12/19 13:47:46;;;;;;;;;;;7.00;99.90;;;;;;5043397;28;20251;-79
2021/12/19 13:50:14;;;;;;;;;;;7.00;99.90;;;;;;5043323;28;20361;-79
2021/12/19 13:52:41;;;;;;;;;;;7.00;99.90;;;;;;5039418;28;20011;-79
2021/12/19 13:55:12;;;;;;;;;;;7.00;99.90;;;;;;5044436;28;19921;-79
2021/12/19 13:57:39;;;;;;;;;;;6.90;99.90;;;;;;5045219;28;19978;-79
2021/12/19 14:00:07;;;;;;;;;;;6.90;99.90;;;;;;5033462;28;19929;-80
2021/12/19 14:02:37;;;;;;;;;;;6.80;99.90;;;;;;5031407;28;19927;-80
2021/12/19 14:05:24;;;;;;;;;;;6.80;99.90;;;;;;5046991;28;19927;-79
2021/12/19 14:07:50;;;;;;;;;;;6.80;99.90;;;;;;5041224;28;19927;-79
2021/12/19 14:10:21;;;;;;;;;;;6.80;99.90;;;;;;5046913;28;20451;-79
2021/12/19 14:13:07;;;;;;;;;;;6.80;99.90;;;;;;5044265;28;21933;-79
2021/12/19 14:15:37;;;;;;;;;;;6.80;99.90;;;;;;5033692;28;19924;-79
2021/12/19 14:18:23;;;;;;;;;;;6.80;99.90;;;;;;5034541;28;19927;-79
2021/12/19 14:20:50;;;;;;;;;;;6.80;99.90;;;;;;5044591;28;19935;-79
2021/12/19 14:23:17;;;;;;;;;;;6.80;99.90;;;;;;5041262;28;20011;-79
2021/12/19 14:25:44;;;;;;;;;;;6.80;99.90;;;;;;5036147;28;19929;-79
2021/12/19 14:28:21;;;;;;;;;;;6.70;99.90;;;;;;5041333;28;19932;-79
2021/12/19 14:31:14;;;;;;;;;;;6.60;99.90;;;;;;5041261;28;20356;-79
2021/12/19 14:33:41;;;;;;;;;;;6.40;99.90;;;;;;5036445;28;19931;-79
2021/12/19 14:36:11;;;;;;;;;;;6.30;99.90;;;;;;5044720;28;19920;-79
2021/12/19 14:38:39;;;;;;;;;;;6.20;99.90;;;;;;5044115;28;20279;-79
2021/12/19 14:41:07;;;;;;;;;;;6.10;99.90;;;;;;5034918;28;19972;-79
2021/12/19 14:43:35;;;;;;;;;;;6.00;99.90;;;;;;5036816;28;20294;-79
2021/12/19 14:46:04;;;;;;;;;;;5.90;99.90;;;;;;5047296;28;19949;-79
2021/12/19 14:48:30;;;;;;;;;;;5.90;99.90;;;;;;5049398;28;19925;-79
2021/12/19 14:50:58;;;;;;;;;;;5.80;99.90;;;;;;5043614;28;19928;-79
2021/12/19 14:53:25;;;;;;;;;;;5.80;99.90;;;;;;5047621;28;20410;-79
2021/12/19 14:56:06;;;;;;;;;;;5.70;99.90;;;;;;5042155;28;19920;-79
2021/12/19 14:58:37;;;;;;;;;;;5.70;99.90;;;;;;5046397;28;19921;-79
2021/12/19 15:01:09;;;;;;;;;;;5.70;99.90;;;;;;5045117;28;20015;-79
2021/12/19 15:03:40;;;;;;;;;;;5.60;99.90;;;;;;5061608;28;19946;-79
2021/12/19 15:06:14;;;;;;;;;;;5.50;99.90;;;;;;5049224;28;19920;-79
2021/12/19 15:08:41;;;;;;;;;;;5.50;99.90;;;;;;5046275;28;20414;-79
2021/12/19 15:11:08;;;;;;;;;;;5.50;99.90;;;;;;5044423;28;19978;-79
2021/12/19 15:13:35;;;;;;;;;;;5.50;99.90;;;;;;5044488;28;20031;-79
2021/12/19 15:16:01;;;;;;;;;;;5.50;99.90;;;;;;5043515;28;20473;-79
2021/12/19 15:18:33;;;;;;;;;;;5.50;99.90;;;;;;5052473;28;19927;-79
2021/12/19 15:21:00;;;;;;;;;;;5.50;99.90;;;;;;5042705;28;19928;-79
2021/12/19 15:23:31;;;;;;;;;;;5.50;99.90;;;;;;5043887;28;20913;-79
2021/12/19 15:25:58;;;;;;;;;;;5.50;99.90;;;;;;5043318;28;20384;-79
2021/12/19 15:28:26;;;;;;;;;;;5.50;99.90;;;;;;5038884;28;19924;-79
2021/12/19 15:30:54;;;;;;;;;;;5.60;99.90;;;;;;5040242;28;19952;-80
2021/12/19 15:33:21;;;;;;;;;;;5.60;99.90;;;;;;5047349;28;20298;-79
2021/12/19 15:35:49;;;;;;;;;;;5.60;99.90;;;;;;5039757;28;19925;-79
2021/12/19 15:38:15;;;;;;;;;;;5.50;99.90;;;;;;5038222;28;20070;-79
2021/12/19 15:40:42;;;;;;;;;;;5.50;99.90;;;;;;5044764;28;19927;-79
2021/12/19 15:43:09;;;;;;;;;;;5.50;99.90;;;;;;5035609;28;20191;-79
2021/12/19 15:45:36;;;;;;;;;;;5.50;99.90;;;;;;5046542;28;20621;-80
2021/12/19 15:48:04;;;;;;;;;;;5.50;99.90;;;;;;5041307;28;19928;-79
2021/12/19 15:50:31;;;;;;;;;;;5.50;99.90;;;;;;5045232;28;19971;-80
2021/12/19 15:52:58;;;;;;;;;;;5.40;99.90;;;;;;5037019;28;19925;-79
2021/12/19 15:55:25;;;;;;;;;;;5.40;99.90;;;;;;5035270;28;19928;-79
2021/12/19 15:57:53;;;;;;;;;;;5.30;99.90;;;;;;5046637;28;19929;-79